Flight Number: AVA1293 Duration: 2:00
Departure: Riga (EVRA) at 07:15 Distance: 687.699 Nm
Arrival: Frankfurt am Main (EDDF) at 09:15 Equipment: MD-81

Weather Information
Riga International Airport, Latvia (EVRA) 56-55N 023-58E Sep 27, 2020 - 12:50 PM EDT / 2020.09.27 1650 UTC
Wind: from the E (090 degrees) at 9 MPH (8 KT):0
Visibility: greater than 7 mile(s):0 Temperature: 68 F (20 C) Dew Point: 51 F (11 C) Relative Humidity: 56% Pressure (altimeter): 29.85 in. Hg (1011 hPa)
ob: EVRA 271650Z 09008KT CAVOK 20/11 Q1011 NOSIG cycle: 17
Sunrise: 04:25 Sunset: 16:03 (UTC)

Frankfurt / M-Flughafen, Germany (EDDF) 50-03N 008-36E 113M Sep 27, 2020 - 12:50 PM EDT / 2020.09.27 1650 UTC
Wind: Variable at 2 MPH (2 KT):0
Visibility: greater than 7 mile(s):0
Sky conditions: mostly cloudy Temperature: 53 F (12 C) Dew Point: 46 F (8 C) Relative Humidity: 76% Pressure (altimeter): 29.71 in. Hg (1006 hPa)
ob: EDDF 271650Z VRB02KT 9999 FEW020 BKN046 12/08 Q1006 NOSIG cycle: 17
Sunrise: 05:24 Sunset: 17:08 (UTC)

TAF:2020/09/27 12:28 TAF EDDF 271100Z 2712/2818 17008KT 9999 FEW015 BKN030 BECMG 2717/2719 VRB02KT TEMPO 2804/2808 1300 BCFG BKN003 PROB30 TEMPO 2805/2807 0700 FG VV001 BECMG 2807/2810 21007KT BECMG 2809/2812 SCT035

Previous Pireps for this route
Date Aircraft Flight time Fuel used Landing rate On time
2016-04-25MD-8101.5912663-195Yes
2017-09-16MD-8102.1413805-241Charter
2018-04-08MD-813.29138190Charter
2018-11-23MD-812.0935655-151Yes
(pireps marked green are flown by you)

Route map